Time;durP1;ratioP1;P1;durP2;ratioP2;P2;SDS_P1;SDS_P2;PMS_P1;PMS_P2;Temp;Humidity;BMP_temperature;BMP_pressure;BME280_temperature;BME280_humidity;BME280_pressure;Samples;Min_cycle;Max_cycle;Signal;HPM_P1;HPM_P2
2022/01/06 00:00:46;;;;;;;16.07;7.20;;;;;;;1.43;72.42;96091.16;1722470;83;27426;-91
2022/01/06 00:03:13;;;;;;;13.28;5.72;;;;;;;1.40;72.36;96088.05;1722275;82;25367;-88
2022/01/06 00:05:40;;;;;;;14.58;6.03;;;;;;;1.36;72.28;96092.90;1722391;82;25725;-92
2022/01/06 00:08:06;;;;;;;13.78;5.70;;;;;;;1.35;72.31;96080.61;1722415;82;26394;-90
2022/01/06 00:10:33;;;;;;;14.90;6.40;;;;;;;1.38;72.34;96072.77;1722505;83;25355;-91
2022/01/06 00:15:36;;;;;;;12.50;5.67;;;;;;;1.41;72.38;96065.26;1722232;83;25772;-91
2022/01/06 00:24:01;;;;;;;15.20;6.17;;;;;;;1.43;72.42;96061.09;1722426;83;25697;-88
2022/01/06 00:25:44;;;;;;;22.42;8.38;;;;;;;1.48;72.46;96058.67;1713124;82;27492;-88
2022/01/06 00:28:12;;;;;;;16.02;7.60;;;;;;;1.52;72.30;96061.28;1722363;83;25940;-89
2022/01/06 00:30:39;;;;;;;13.60;5.50;;;;;;;1.52;72.23;96063.95;1722468;83;25795;-91
2022/01/06 00:33:06;;;;;;;10.80;5.37;;;;;;;1.57;72.28;96074.83;1722408;83;25775;-88
2022/01/06 00:35:32;;;;;;;14.50;5.35;;;;;;;1.60;72.24;96081.11;1722124;82;25875;-87
2022/01/06 00:37:59;;;;;;;12.98;6.15;;;;;;;1.63;72.26;96076.75;1722511;82;28283;-90
2022/01/06 00:40:26;;;;;;;21.10;7.37;;;;;;;1.68;72.15;96077.02;1722471;83;25823;-90
2022/01/06 00:42:52;;;;;;;15.40;6.45;;;;;;;1.71;72.04;96070.48;1722478;83;25745;-88
2022/01/06 00:45:21;;;;;;;11.95;6.60;;;;;;;1.75;72.04;96077.91;1707275;83;25893;-92
2022/01/06 00:47:48;;;;;;;12.85;6.05;;;;;;;1.77;72.06;96077.72;1722595;83;25729;-92
2022/01/06 00:50:15;;;;;;;9.93;5.33;;;;;;;1.76;72.05;96066.25;1722482;82;27598;-89
2022/01/06 00:52:41;;;;;;;9.78;4.75;;;;;;;1.74;72.04;96061.62;1722371;82;25792;-90
2022/01/06 00:55:08;;;;;;;11.28;5.50;;;;;;;1.71;71.91;96061.98;1722612;82;25792;-91
2022/01/06 00:57:35;;;;;;;9.03;4.58;;;;;;;1.75;71.87;96069.92;1722444;83;26440;-90
2022/01/06 01:00:03;;;;;;;8.73;4.50;;;;;;;1.78;71.82;96069.55;1722422;83;25736;-90
2022/01/06 01:02:30;;;;;;;11.40;4.85;;;;;;;1.77;71.72;96074.55;1722410;83;28320;-92
2022/01/06 01:04:56;;;;;;;9.50;4.47;;;;;;;1.76;71.62;96075.56;1722214;83;25808;-89
2022/01/06 01:07:23;;;;;;;5.85;2.98;;;;;;;1.79;71.60;96084.51;1722393;82;25825;-89
2022/01/06 01:09:49;;;;;;;8.83;3.90;;;;;;;1.78;71.47;96081.52;1722373;83;26201;-92
2022/01/06 01:12:16;;;;;;;8.65;3.67;;;;;;;1.80;71.41;96084.00;1722421;83;25826;-89
2022/01/06 01:14:57;;;;;;;8.25;3.02;;;;;;;1.84;71.28;96097.22;1722393;83;28031;-90
2022/01/06 01:17:24;;;;;;;6.45;3.02;;;;;;;1.84;71.18;96097.22;1721381;82;25919;-90
2022/01/06 01:19:49;;;;;;;6.10;3.60;;;;;;;1.86;71.21;96098.37;1722205;82;26057;-91
2022/01/06 01:22:16;;;;;;;6.05;3.22;;;;;;;1.90;71.07;96079.69;1722348;82;26058;-90
2022/01/06 01:24:42;;;;;;;8.25;3.47;;;;;;;1.90;71.00;96074.37;1722356;83;26489;-92
2022/01/06 01:27:09;;;;;;;7.17;3.42;;;;;;;1.93;70.96;96072.16;1722432;82;27409;-91
2022/01/06 01:29:45;;;;;;;9.13;3.35;;;;;;;1.97;71.00;96063.27;1722352;82;25804;-91
2022/01/06 01:32:05;;;;;;;7.83;3.27;;;;;;;1.95;70.82;96069.28;1721572;82;25741;-88
2022/01/06 01:34:32;;;;;;;6.28;3.02;;;;;;;1.92;70.77;96075.84;1724541;81;25972;-91
2022/01/06 01:36:59;;;;;;;8.08;3.70;;;;;;;1.91;70.83;96076.84;1728795;81;25684;-90
2022/01/06 01:39:27;;;;;;;7.30;3.37;;;;;;;1.87;70.70;96071.58;1728727;82;27442;-92
2022/01/06 01:41:53;;;;;;;4.40;3.10;;;;;;;1.87;70.68;96073.41;1728463;82;26320;-91
2022/01/06 01:44:21;;;;;;;9.25;3.77;;;;;;;1.89;70.67;96076.70;1728653;82;25828;-91
2022/01/06 01:47:02;;;;;;;9.80;4.60;;;;;;;1.92;70.62;96067.02;1728684;82;26635;-92
2022/01/06 01:49:45;;;;;;;11.22;5.28;;;;;;;1.94;70.54;96076.95;1728317;82;25793;-94
2022/01/06 01:51:59;;;;;;;8.93;4.92;;;;;;;1.97;70.51;96077.40;1727710;81;27817;-93
2022/01/06 01:54:26;;;;;;;9.08;4.80;;;;;;;1.98;70.37;96074.23;1728514;81;25698;-93
2022/01/06 01:56:53;;;;;;;6.00;3.10;;;;;;;1.99;70.35;96078.04;1728667;81;25754;-92
2022/01/06 01:59:19;;;;;;;6.83;3.50;;;;;;;1.99;70.29;96078.55;1728609;81;26046;-91
2022/01/06 02:01:46;;;;;;;9.75;3.42;;;;;;;2.00;70.33;96074.88;1728702;81;25752;-92
2022/01/06 02:04:13;;;;;;;6.45;3.55;;;;;;;2.02;70.35;96076.84;1728589;81;27408;-92
2022/01/06 02:06:39;;;;;;;5.08;2.27;;;;;;;1.99;70.26;96076.70;1728481;81;26142;-91
2022/01/06 02:09:06;;;;;;;5.53;2.72;;;;;;;2.02;70.18;96086.16;1728494;82;25772;-92
2022/01/06 02:11:32;;;;;;;5.55;2.60;;;;;;;2.02;70.14;96086.98;1728678;81;25919;-93
2022/01/06 02:14:00;;;;;;;6.20;3.20;;;;;;;2.05;70.07;96088.45;1728539;81;26364;-91
2022/01/06 02:16:27;;;;;;;8.08;2.70;;;;;;;2.06;70.02;96087.41;1728604;81;27384;-91
2022/01/06 02:18:54;;;;;;;6.55;3.00;;;;;;;2.05;70.00;96090.57;1728532;81;25770;-92
2022/01/06 02:21:21;;;;;;;6.42;3.08;;;;;;;2.06;70.04;96094.06;1728595;81;25768;-92
2022/01/06 02:23:48;;;;;;;7.40;3.75;;;;;;;2.06;70.11;96086.07;1728537;81;26136;-88
2022/01/06 02:26:15;;;;;;;6.95;3.92;;;;;;;2.05;70.10;96099.09;1728502;81;25761;-91
2022/01/06 02:28:42;;;;;;;6.45;3.70;;;;;;;2.01;70.12;96104.47;1728568;81;28325;-92
2022/01/06 02:31:09;;;;;;;6.72;3.17;;;;;;;1.99;70.22;96105.16;1728544;81;25902;-89
2022/01/06 02:33:36;;;;;;;6.53;3.83;;;;;;;1.93;70.11;96107.27;1728503;81;25493;-91
2022/01/06 02:36:04;;;;;;;5.97;3.12;;;;;;;1.93;70.19;96116.58;1723350;81;26099;-90
2022/01/06 02:38:31;;;;;;;6.95;3.30;;;;;;;1.91;70.18;96114.61;1727106;81;25901;-91
2022/01/06 02:40:58;;;;;;;6.22;3.37;;;;;;;1.92;70.16;96104.28;1752410;81;27410;-90
2022/01/06 02:43:25;;;;;;;10.90;4.92;;;;;;;1.89;70.05;96099.33;1752360;81;25732;-92
2022/01/06 02:45:52;;;;;;;13.78;5.53;;;;;;;1.90;70.03;96103.64;1752511;81;25749;-93
2022/01/06 02:48:18;;;;;;;7.80;4.70;;;;;;;1.91;70.05;96092.81;1752206;81;26034;-93
2022/01/06 02:50:49;;;;;;;9.88;4.67;;;;;;;1.93;69.99;96093.95;1752554;81;25676;-92
2022/01/06 02:53:18;;;;;;;7.65;4.30;;;;;;;1.90;69.91;96084.51;1752520;81;28395;-91
2022/01/06 02:55:50;;;;;;;6.80;3.52;;;;;;;1.93;69.99;96079.32;1771684;80;25778;-93
2022/01/06 02:58:18;;;;;;;5.37;3.17;;;;;;;1.93;69.99;96081.98;1752642;81;25776;-92
2022/01/06 03:00:45;;;;;;;13.43;6.85;;;;;;;1.86;69.90;96077.08;1752498;81;26871;-92
2022/01/06 03:03:12;;;;;;;8.40;4.80;;;;;;;1.79;69.99;96077.86;1752488;81;25784;-92
2022/01/06 03:05:39;;;;;;;49.77;13.45;;;;;;;1.78;70.13;96086.84;1752479;81;28329;-92
2022/01/06 03:08:06;;;;;;;10.88;4.62;;;;;;;1.79;70.30;96085.02;1737311;81;25828;-91
2022/01/06 03:10:36;;;;;;;47.13;13.58;;;;;;;1.76;70.19;96083.55;1752387;80;25992;-89
2022/01/06 03:13:01;;;;;;;27.75;9.45;;;;;;;1.75;70.37;96077.08;1752329;81;26959;-91
2022/01/06 03:15:28;;;;;;;7.60;3.55;;;;;;;1.78;70.49;96090.01;1752504;81;25812;-92
2022/01/06 03:17:56;;;;;;;6.65;3.67;;;;;;;1.71;70.45;96091.25;1752367;80;28075;-90
2022/01/06 03:20:25;;;;;;;6.62;3.05;;;;;;;1.66;70.64;96090.19;1752401;81;25853;-92
2022/01/06 03:22:53;;;;;;;6.92;3.33;;;;;;;1.63;70.75;96098.03;1752489;81;25865;-93
2022/01/06 03:25:21;;;;;;;6.28;2.87;;;;;;;1.56;70.86;96101.13;1752498;81;26025;-92
2022/01/06 03:27:48;;;;;;;5.47;3.15;;;;;;;1.51;70.67;96092.88;1752529;81;25765;-91
2022/01/06 03:30:19;;;;;;;8.18;3.25;;;;;;;1.54;70.72;96094.34;1752492;81;28178;-93
2022/01/06 03:32:47;;;;;;;7.17;3.77;;;;;;;1.58;70.94;96084.45;1752398;81;25741;-91
2022/01/06 03:35:18;;;;;;;4.90;2.62;;;;;;;1.55;71.00;96090.17;1752499;81;25794;-92
2022/01/06 03:37:44;;;;;;;6.17;2.87;;;;;;;1.51;70.83;96090.22;1771863;80;26083;-90
2022/01/06 03:40:12;;;;;;;6.58;3.10;;;;;;;1.55;70.85;96092.83;1753027;81;25772;-89
2022/01/06 03:42:39;;;;;;;27.13;11.88;;;;;;;1.59;70.92;96091.93;1772132;80;27375;-92
2022/01/06 03:45:10;;;;;;;13.62;5.62;;;;;;;1.63;70.80;96098.03;1722948;83;26324;-93
2022/01/06 03:47:36;;;;;;;7.55;4.15;;;;;;;1.67;70.89;96093.99;1754911;81;25823;-93
2022/01/06 03:50:05;;;;;;;10.15;4.25;;;;;;;1.72;70.82;96096.89;1767932;80;26015;-91
2022/01/06 03:52:32;;;;;;;12.78;5.75;;;;;;;1.73;70.98;96095.06;1734233;82;25985;-93
2022/01/06 03:54:59;;;;;;;13.10;4.22;;;;;;;1.75;70.99;96099.69;1752930;80;27383;-90
2022/01/06 03:57:26;;;;;;;5.67;2.90;;;;;;;1.79;70.78;96104.97;1753089;80;25739;-90
2022/01/06 03:59:52;;;;;;;5.75;2.98;;;;;;;1.68;70.24;96103.63;1753024;80;25723;-92
2022/01/06 04:02:19;;;;;;;5.72;3.47;;;;;;;1.62;70.38;96099.03;1753018;80;26078;-91
2022/01/06 04:04:46;;;;;;;8.63;3.30;;;;;;;1.62;70.59;96112.34;1752891;80;25809;-91
2022/01/06 04:07:12;;;;;;;5.75;3.02;;;;;;;1.66;70.60;96104.81;1752929;81;27369;-92
2022/01/06 04:09:39;;;;;;;5.60;2.55;;;;;;;1.73;70.54;96119.83;1752867;81;25742;-91
2022/01/06 04:12:09;;;;;;;5.62;3.08;;;;;;;1.80;70.44;96116.75;1752908;80;25731;-90
2022/01/06 04:14:35;;;;;;;5.37;2.62;;;;;;;1.86;70.26;96111.67;1752874;81;25955;-89
2022/01/06 04:17:02;;;;;;;5.70;2.77;;;;;;;1.92;70.12;96117.08;1753055;81;26424;-92
2022/01/06 04:19:28;;;;;;;6.90;2.83;;;;;;;1.94;70.12;96110.21;1752776;81;27436;-91
2022/01/06 04:21:55;;;;;;;4.97;2.17;;;;;;;1.98;70.09;96119.48;1752971;80;25916;-91
2022/01/06 04:24:22;;;;;;;5.25;2.50;;;;;;;1.96;69.95;96116.17;1752948;80;25753;-90
2022/01/06 04:26:48;;;;;;;4.90;2.20;;;;;;;2.00;70.09;96117.45;1753170;81;26139;-93
2022/01/06 04:29:15;;;;;;;6.03;2.50;;;;;;;2.01;70.18;96112.45;1753104;81;25272;-90
2022/01/06 04:31:42;;;;;;;4.10;2.47;;;;;;;2.00;70.23;96120.12;1752925;80;27448;-91
2022/01/06 04:34:09;;;;;;;7.80;2.75;;;;;;;1.97;70.06;96123.15;1752659;81;25849;-91
2022/01/06 04:36:35;;;;;;;9.33;2.95;;;;;;;1.96;69.96;96119.66;1752321;81;25726;-92
2022/01/06 04:39:02;;;;;;;6.85;2.75;;;;;;;1.98;69.92;96114.16;1752414;80;26131;-93
2022/01/06 04:41:29;;;;;;;5.45;2.90;;;;;;;2.01;69.95;96105.80;1752434;80;25788;-91
2022/01/06 04:43:55;;;;;;;3.60;2.33;;;;;;;2.00;70.00;96104.15;1752407;81;27835;-91
2022/01/06 04:46:22;;;;;;;5.37;2.83;;;;;;;2.06;69.98;96117.51;1752446;81;25824;-91
2022/01/06 04:48:49;;;;;;;9.60;4.53;;;;;;;2.09;69.78;96113.14;1752287;81;25785;-91
2022/01/06 04:51:15;;;;;;;11.97;4.75;;;;;;;2.05;69.89;96114.53;1752435;81;26047;-92
2022/01/06 04:53:42;;;;;;;8.50;3.72;;;;;;;2.07;70.02;96119.66;1752437;81;25813;-91
2022/01/06 04:56:08;;;;;;;6.90;3.17;;;;;;;2.04;69.98;96127.55;1752359;80;28092;-92
2022/01/06 04:58:36;;;;;;;4.58;2.47;;;;;;;2.06;69.94;96127.33;1752374;80;25729;-90
2022/01/06 05:01:03;;;;;;;4.97;2.47;;;;;;;2.03;69.75;96121.91;1752415;80;25715;-93
2022/01/06 05:03:30;;;;;;;4.92;2.50;;;;;;;1.97;69.75;96129.80;1752428;80;26155;-93
2022/01/06 05:05:56;;;;;;;5.85;2.70;;;;;;;1.97;69.78;96133.29;1752426;81;25717;-91
2022/01/06 05:08:23;;;;;;;7.40;2.50;;;;;;;1.99;69.74;96138.42;1752334;81;27993;-92
2022/01/06 05:10:49;;;;;;;4.33;2.30;;;;;;;2.03;69.89;96138.38;1752207;81;26188;-92
2022/01/06 05:13:16;;;;;;;3.12;2.20;;;;;;;2.08;69.83;96142.61;1752341;81;25815;-91
2022/01/06 05:15:43;;;;;;;4.50;2.27;;;;;;;2.10;69.67;96139.26;1752224;80;26127;-92
2022/01/06 05:18:09;;;;;;;6.25;2.40;;;;;;;2.08;69.61;96136.78;1752108;80;25686;-89
2022/01/06 05:20:38;;;;;;;5.20;2.75;;;;;;;2.10;69.61;96141.92;1752072;80;28282;-90
2022/01/06 05:23:04;;;;;;;4.60;2.55;;;;;;;2.10;69.56;96148.58;1752181;81;25725;-91
2022/01/06 05:25:32;;;;;;;5.22;2.25;;;;;;;2.11;69.51;96142.23;1752379;81;25773;-90
2022/01/06 05:27:58;;;;;;;4.83;2.72;;;;;;;2.12;69.52;96143.89;1752357;80;26783;-91
2022/01/06 05:30:25;;;;;;;9.05;4.03;;;;;;;2.09;69.45;96146.92;1752428;80;25797;-89
2022/01/06 05:32:52;;;;;;;11.78;4.72;;;;;;;2.07;69.36;96154.27;1752385;80;28587;-91
2022/01/06 05:35:19;;;;;;;8.65;4.15;;;;;;;2.06;69.28;96160.60;1752220;80;25693;-90
2022/01/06 05:37:46;;;;;;;10.38;4.17;;;;;;;2.06;69.29;96167.26;1752346;81;25745;-91
2022/01/06 05:40:14;;;;;;;7.10;3.42;;;;;;;2.05;69.23;96164.30;1752327;81;26254;-92
2022/01/06 05:42:41;;;;;;;7.00;3.80;;;;;;;2.03;69.13;96165.82;1752468;80;25779;-93
2022/01/06 05:45:11;;;;;;;9.00;3.72;;;;;;;2.01;69.08;96163.84;1752363;80;27367;-93
2022/01/06 05:47:37;;;;;;;5.90;3.50;;;;;;;2.03;69.00;96165.00;1752206;81;26300;-93
2022/01/06 05:50:05;;;;;;;5.65;3.65;;;;;;;2.05;68.97;96174.95;1752117;81;25273;-90
2022/01/06 05:52:32;;;;;;;6.83;4.15;;;;;;;2.05;68.86;96174.95;1752227;80;26054;-92
2022/01/06 05:54:59;;;;;;;12.50;5.10;;;;;;;2.04;68.87;96171.97;1752309;81;25739;-87
2022/01/06 05:57:25;;;;;;;15.90;5.72;;;;;;;2.05;68.90;96166.97;1752379;81;27538;-91
2022/01/06 05:59:52;;;;;;;8.40;4.08;;;;;;;2.05;68.81;96176.28;1752323;80;26155;-91
2022/01/06 06:02:19;;;;;;;19.48;6.12;;;;;;;2.05;68.83;96171.75;1752353;81;25765;-93
2022/01/06 06:04:46;;;;;;;11.95;4.90;;;;;;;2.06;68.83;96176.57;1752386;80;26935;-94
2022/01/06 06:07:12;;;;;;;10.60;4.55;;;;;;;2.08;68.79;96186.53;1752576;80;25935;-93
2022/01/06 06:09:39;;;;;;;8.83;4.10;;;;;;;2.09;68.81;96182.86;1752597;81;27315;-93
2022/01/06 06:12:07;;;;;;;8.83;4.30;;;;;;;2.10;68.73;96187.17;1752893;80;25770;-92
2022/01/06 06:14:33;;;;;;;6.05;3.67;;;;;;;2.12;68.81;96194.47;1752815;80;25789;-93
2022/01/06 06:17:00;;;;;;;6.92;3.27;;;;;;;2.15;68.77;96191.44;1752722;81;26035;-93
2022/01/06 06:19:26;;;;;;;8.15;3.52;;;;;;;2.16;68.79;96193.92;1752824;81;25764;-92
2022/01/06 06:21:53;;;;;;;7.85;3.50;;;;;;;2.23;68.81;96194.48;1752873;80;28441;-90
2022/01/06 06:24:22;;;;;;;14.78;6.33;;;;;;;2.24;68.77;96192.96;1752561;80;25264;-93
2022/01/06 06:26:50;;;;;;;17.42;6.15;;;;;;;2.28;68.72;96200.91;1752824;80;25276;-91
2022/01/06 06:29:17;;;;;;;13.93;5.62;;;;;;;2.29;68.74;96199.89;1752632;81;26039;-93
2022/01/06 06:31:44;;;;;;;17.15;7.28;;;;;;;2.30;68.69;96204.17;1752522;80;25773;-92
2022/01/06 06:34:11;;;;;;;16.45;5.92;;;;;;;2.30;68.68;96202.02;1752633;81;27197;-92
2022/01/06 06:36:38;;;;;;;14.18;5.53;;;;;;;2.27;68.65;96212.56;1752288;80;25361;-92
2022/01/06 06:39:05;;;;;;;16.07;5.35;;;;;;;2.24;68.55;96204.95;1752369;81;25275;-91
2022/01/06 06:41:32;;;;;;;11.03;5.12;;;;;;;2.25;68.57;96210.59;1752572;80;26483;-92
2022/01/06 06:43:59;;;;;;;11.97;4.58;;;;;;;2.23;68.49;96213.94;1752707;80;25727;-89
2022/01/06 06:46:25;;;;;;;10.68;3.55;;;;;;;2.24;68.51;96207.61;1752614;81;27459;-90
2022/01/06 06:48:52;;;;;;;11.10;4.28;;;;;;;2.22;68.38;96204.30;1752552;80;25807;-92
2022/01/06 06:51:19;;;;;;;12.60;4.30;;;;;;;2.23;68.36;96203.80;1752306;81;25893;-92
2022/01/06 06:53:45;;;;;;;13.58;5.15;;;;;;;2.23;68.23;96211.78;1752590;80;25900;-90
2022/01/06 06:56:12;;;;;;;9.18;4.70;;;;;;;2.25;68.27;96213.76;1752606;81;25862;-91
2022/01/06 06:58:38;;;;;;;11.90;4.12;;;;;;;2.25;68.18;96214.59;1752578;80;27542;-89
2022/01/06 07:01:05;;;;;;;11.22;4.65;;;;;;;2.24;68.20;96226.75;1752468;81;25706;-90
2022/01/06 07:03:32;;;;;;;13.38;5.35;;;;;;;2.23;68.07;96231.25;1752481;80;25777;-93
2022/01/06 07:05:58;;;;;;;19.12;6.12;;;;;;;2.24;68.07;96223.58;1752672;80;25988;-92
2022/01/06 07:08:25;;;;;;;19.23;8.88;;;;;;;2.29;68.07;96228.35;1752658;81;25789;-91
2022/01/06 07:10:51;;;;;;;18.30;8.80;;;;;;;2.29;68.08;96234.50;1752663;80;28135;-92
2022/01/06 07:13:19;;;;;;;12.03;6.72;;;;;;;2.27;67.96;96232.53;1752437;80;25774;-93
2022/01/06 07:15:47;;;;;;;13.83;6.42;;;;;;;2.26;67.88;96238.04;1752695;81;25662;-88
2022/01/06 07:18:14;;;;;;;25.90;12.30;;;;;;;2.28;67.93;96234.19;1752532;80;26203;-92
2022/01/06 07:20:42;;;;;;;52.90;23.05;;;;;;;2.31;67.94;96232.45;1737438;81;25803;-90
2022/01/06 07:23:09;;;;;;;44.35;19.57;;;;;;;2.37;67.91;96230.38;1752286;81;27467;-93
2022/01/06 07:25:35;;;;;;;35.40;16.62;;;;;;;2.42;68.21;96233.80;1752525;81;25778;-92
2022/01/06 07:28:02;;;;;;;40.10;18.12;;;;;;;2.46;67.87;96230.58;1752359;81;25797;-92
2022/01/06 07:30:30;;;;;;;35.90;17.23;;;;;;;2.49;67.78;96232.05;1752423;81;26059;-91
2022/01/06 07:32:56;;;;;;;18.55;8.03;;;;;;;2.51;67.70;96233.51;1752510;80;25727;-93
2022/01/06 07:35:23;;;;;;;8.43;4.17;;;;;;;2.52;67.59;96231.16;1752435;81;27407;-92
2022/01/06 07:37:50;;;;;;;10.93;5.72;;;;;;;2.54;67.53;96235.77;1752567;80;25924;-91
2022/01/06 07:40:18;;;;;;;13.83;5.50;;;;;;;2.58;67.50;96234.89;1752974;81;25818;-90
2022/01/06 07:42:47;;;;;;;11.90;4.97;;;;;;;2.62;67.52;96236.67;1753066;80;26084;-91
2022/01/06 07:45:14;;;;;;;11.22;4.17;;;;;;;2.63;67.36;96233.00;1753084;81;25359;-91
2022/01/06 07:48:01;;;;;;;11.03;4.20;;;;;;;2.66;67.81;96241.41;1752890;80;27560;-90
2022/01/06 07:50:11;;;;;;;12.85;4.47;;;;;;;2.86;69.01;96234.45;1749674;81;26002;-91
2022/01/06 07:52:38;;;;;;;12.60;5.37;;;;;;;2.95;68.25;96243.13;1753012;80;26285;-92
2022/01/06 07:55:06;;;;;;;16.90;6.55;;;;;;;3.01;67.97;96238.88;1753075;81;26141;-93
2022/01/06 07:57:32;;;;;;;14.65;6.10;;;;;;;3.04;67.63;96244.63;1753089;81;25642;-93
2022/01/06 07:59:59;;;;;;;13.08;5.20;;;;;;;3.02;67.52;96246.66;1753073;81;27521;-90
2022/01/06 08:02:25;;;;;;;9.98;4.35;;;;;;;2.94;67.44;96248.64;1753044;80;25737;-92
2022/01/06 08:04:52;;;;;;;13.70;4.50;;;;;;;2.87;67.34;96257.93;1753112;80;25880;-92
2022/01/06 08:07:18;;;;;;;6.10;3.58;;;;;;;2.84;67.33;96252.97;1753076;81;25984;-90
2022/01/06 08:09:45;;;;;;;10.28;4.97;;;;;;;2.81;67.26;96260.01;1753192;81;25750;-92
2022/01/06 08:12:12;;;;;;;12.13;5.50;;;;;;;2.81;67.40;96263.50;1753120;80;27424;-93
2022/01/06 08:14:38;;;;;;;13.40;5.53;;;;;;;2.80;67.41;96265.02;1752661;81;25678;-91
2022/01/06 08:17:05;;;;;;;11.20;4.75;;;;;;;2.79;67.43;96255.38;1753096;81;25830;-91
2022/01/06 08:19:31;;;;;;;10.75;4.53;;;;;;;2.75;67.42;96254.12;1753011;80;26117;-92
2022/01/06 08:21:58;;;;;;;8.53;4.60;;;;;;;2.72;67.48;96250.50;1753115;80;26321;-92
2022/01/06 08:24:25;;;;;;;9.98;6.90;;;;;;;2.68;67.45;96263.88;1753099;81;27342;-88
2022/01/06 08:26:51;;;;;;;13.90;7.15;;;;;;;2.65;67.57;96268.28;1752945;81;25904;-92
2022/01/06 08:29:18;;;;;;;16.10;7.78;;;;;;;2.64;67.57;96275.95;1753094;80;25717;-92
2022/01/06 08:31:44;;;;;;;11.12;6.50;;;;;;;2.65;67.58;96266.95;1753108;80;26164;-90
2022/01/06 08:34:11;;;;;;;13.30;6.62;;;;;;;2.65;67.58;96275.77;1753004;81;25696;-92
2022/01/06 08:36:38;;;;;;;9.13;4.58;;;;;;;2.64;67.58;96269.28;1752971;81;27464;-93
2022/01/06 08:39:04;;;;;;;13.62;8.03;;;;;;;2.66;67.64;96277.89;1753046;81;25762;-93
2022/01/06 08:41:31;;;;;;;15.38;7.62;;;;;;;2.70;67.72;96281.84;1752980;80;25245;-95
2022/01/06 08:43:58;;;;;;;15.93;7.40;;;;;;;2.73;67.72;96281.47;1753027;81;26145;-90
2022/01/06 08:46:24;;;;;;;27.02;13.45;;;;;;;2.76;67.79;96293.09;1753125;81;25706;-91
2022/01/06 08:48:51;;;;;;;20.30;10.40;;;;;;;2.76;67.68;96299.75;1753077;81;27507;-92
2022/01/06 08:51:18;;;;;;;15.95;7.58;;;;;;;2.75;67.74;96300.25;1752963;81;25714;-92
2022/01/06 08:53:45;;;;;;;12.23;5.80;;;;;;;2.77;67.76;96308.06;1752972;81;25303;-92
2022/01/06 08:56:12;;;;;;;13.03;5.10;;;;;;;2.75;67.75;96306.09;1752912;80;26117;-92
2022/01/06 08:58:38;;;;;;;8.80;4.60;;;;;;;2.74;67.78;96311.09;1752979;81;25975;-92
2022/01/06 09:01:05;;;;;;;18.85;8.05;;;;;;;2.76;67.82;96317.07;1752996;80;27527;-92
2022/01/06 09:03:31;;;;;;;17.60;7.30;;;;;;;2.74;67.83;96317.76;1752935;80;25977;-91
2022/01/06 09:05:58;;;;;;;23.87;10.78;;;;;;;2.70;67.77;96313.31;1752950;81;25671;-93
2022/01/06 09:08:26;;;;;;;14.10;7.28;;;;;;;2.68;67.90;96317.17;1752740;80;26070;-91
2022/01/06 09:10:53;;;;;;;36.77;14.47;;;;;;;2.69;67.91;96307.66;1752958;81;25773;-93
2022/01/06 09:13:19;;;;;;;19.67;10.00;;;;;;;2.72;67.99;96317.12;1752981;80;28060;-87
2022/01/06 09:15:46;;;;;;;15.65;6.90;;;;;;;2.74;68.05;96319.09;1753024;81;26396;-92
2022/01/06 09:18:12;;;;;;;13.20;6.22;;;;;;;2.73;68.05;96322.27;1748593;81;25716;-91
2022/01/06 09:20:39;;;;;;;9.25;4.60;;;;;;;2.74;68.14;96323.09;1752868;81;26098;-92
2022/01/06 09:23:06;;;;;;;9.45;4.55;;;;;;;2.77;68.21;96325.39;1752776;80;25772;-92
2022/01/06 09:25:32;;;;;;;11.18;5.53;;;;;;;2.79;68.32;96324.66;1753047;81;27581;-93
2022/01/06 09:27:59;;;;;;;8.85;4.12;;;;;;;2.80;68.41;96328.98;1752969;81;26416;-90
2022/01/06 09:30:25;;;;;;;8.53;4.55;;;;;;;2.81;68.25;96327.97;1752872;81;26403;-93
2022/01/06 09:32:53;;;;;;;9.38;5.12;;;;;;;2.76;68.31;96329.89;1753122;81;26044;-93
2022/01/06 09:35:21;;;;;;;14.35;7.03;;;;;;;2.78;68.43;96324.34;1752951;81;25784;-90
2022/01/06 09:37:48;;;;;;;15.28;7.62;;;;;;;2.85;68.54;96323.92;1752535;80;27426;-94
2022/01/06 09:40:15;;;;;;;23.85;9.93;;;;;;;2.88;68.48;96320.89;1752491;81;25295;-92
2022/01/06 09:42:44;;;;;;;15.88;8.65;;;;;;;2.94;68.56;96326.77;1752556;81;26036;-94
2022/01/06 09:45:11;;;;;;;15.80;9.10;;;;;;;2.99;68.65;96324.38;1752603;81;25989;-94
2022/01/06 09:47:39;;;;;;;18.75;9.50;;;;;;;3.07;68.70;96326.08;1752639;80;25666;-94
2022/01/06 09:50:09;;;;;;;23.55;11.00;;;;;;;3.12;68.68;96328.50;1752876;80;27388;-95
2022/01/06 09:52:36;;;;;;;22.00;10.35;;;;;;;3.15;68.62;96325.43;1753034;81;26190;-96
2022/01/06 09:55:04;;;;;;;14.68;6.70;;;;;;;3.22;68.76;96325.00;1752684;81;25225;-94
2022/01/06 09:57:31;;;;;;;13.90;6.75;;;;;;;3.32;68.78;96326.52;1752799;81;25851;-93
2022/01/06 09:59:57;;;;;;;12.45;5.12;;;;;;;3.39;68.72;96330.05;1753213;81;25343;-94
2022/01/06 10:02:34;;;;;;;11.78;5.87;;;;;;;3.42;68.53;96322.49;1752774;81;27385;-96
2022/01/06 10:05:03;;;;;;;19.45;8.98;;;;;;;3.47;68.54;96324.59;1772058;80;25714;-95
2022/01/06 10:07:39;;;;;;;11.63;5.85;;;;;;;3.53;68.58;96323.80;1753179;81;25748;-93
2022/01/06 10:10:10;;;;;;;17.23;8.60;;;;;;;3.55;68.45;96322.59;1753264;81;26051;-95
2022/01/06 10:12:40;;;;;;;13.70;6.33;;;;;;;3.58;68.44;96330.22;1737946;81;45041;-92
2022/01/06 10:15:23;;;;;;;10.43;5.20;;;;;;;3.59;68.43;96332.38;1752602;81;27363;-89
2022/01/06 10:17:52;;;;;;;6.80;3.95;;;;;;;3.63;68.39;96328.28;1752303;81;25801;-93
2022/01/06 10:20:22;;;;;;;8.90;3.85;;;;;;;3.63;68.16;96337.63;1752518;81;25753;-91
2022/01/06 10:22:52;;;;;;;8.05;3.30;;;;;;;3.62;68.09;96338.14;1752433;81;26031;-93
2022/01/06 10:25:22;;;;;;;6.83;4.20;;;;;;;3.62;67.98;96330.67;1752637;81;25761;-91
2022/01/06 10:27:51;;;;;;;7.58;4.55;;;;;;;3.62;67.92;96337.34;1771879;80;28198;-93
2022/01/06 10:30:17;;;;;;;9.03;4.95;;;;;;;3.62;67.97;96345.34;1752473;81;25698;-92
2022/01/06 10:32:44;;;;;;;12.75;5.62;;;;;;;3.59;67.97;96333.72;1752576;81;26468;-92
2022/01/06 10:35:17;;;;;;;11.40;6.12;;;;;;;3.67;68.17;96334.90;1752367;80;26686;-93
2022/01/06 10:37:48;;;;;;;22.35;10.38;;;;;;;3.74;68.05;96330.45;1754216;80;25706;-92
2022/01/06 10:40:23;;;;;;;19.27;9.28;;;;;;;3.76;67.94;96329.72;1758986;80;26184;-93
2022/01/06 10:42:54;;;;;;;16.10;7.33;;;;;;;3.80;68.01;96330.98;1758834;81;25821;-92
2022/01/06 10:45:25;;;;;;;16.75;7.53;;;;;;;3.84;67.77;96334.92;1758599;80;25772;-94
2022/01/06 10:48:00;;;;;;;10.90;4.83;;;;;;;3.85;67.60;96333.08;1758836;81;26171;-90
2022/01/06 10:50:36;;;;;;;14.18;6.08;;;;;;;3.95;67.62;96339.72;1758915;80;25788;-93
2022/01/06 10:53:11;;;;;;;10.68;6.53;;;;;;;4.06;67.46;96341.52;1758916;80;27216;-93
2022/01/06 10:55:43;;;;;;;12.00;5.12;;;;;;;4.12;67.41;96329.53;1758888;81;25684;-92
2022/01/06 10:58:20;;;;;;;9.03;4.70;;;;;;;4.15;67.16;96330.48;1759118;80;32254;-91
2022/01/06 11:01:00;;;;;;;8.45;4.40;;;;;;;4.17;67.01;96337.79;1758995;80;26049;-91
2022/01/06 11:03:36;;;;;;;5.15;2.70;;;;;;;4.16;66.93;96328.63;1759082;81;25786;-92
2022/01/06 11:06:02;;;;;;;5.85;3.25;;;;;;;4.10;66.55;96325.43;1757666;80;28112;-93
2022/01/06 11:08:32;;;;;;;10.15;4.62;;;;;;;4.11;66.48;96328.39;1758882;81;25999;-90
2022/01/06 11:13:47;;;;;;;19.32;9.80;;;;;;;4.21;66.58;96330.22;1775333;80;26899;-89
2022/01/06 11:16:16;;;;;;;16.42;9.10;;;;;;;4.28;66.52;96344.42;1759062;81;25204;-93
2022/01/06 11:18:49;;;;;;;10.15;5.25;;;;;;;4.22;66.54;96335.36;1759051;81;27609;-87
2022/01/06 11:21:22;;;;;;;17.00;8.83;;;;;;;4.24;66.43;96333.80;1758884;81;25271;-88
2022/01/06 11:23:49;;;;;;;21.15;10.38;;;;;;;4.27;66.53;96332.08;1758583;81;26652;-86
2022/01/06 11:26:23;;;;;;;12.40;6.90;;;;;;;4.32;66.44;96334.99;1747993;81;25973;-91
2022/01/06 11:29:00;;;;;;;16.10;8.23;;;;;;;4.56;66.63;96334.48;1759072;80;25262;-87
2022/01/06 11:31:42;;;;;;;13.50;6.53;;;;;;;4.99;66.49;96324.83;1759074;80;27358;-92
2022/01/06 11:34:18;;;;;;;13.05;5.80;;;;;;;5.13;66.03;96323.83;1759063;81;25743;-93
2022/01/06 11:36:47;;;;;;;14.60;7.20;;;;;;;5.22;66.02;96323.94;1749125;80;25254;-90
2022/01/06 11:39:29;;;;;;;24.60;13.35;;;;;;;5.12;65.55;96320.84;1724180;82;26795;-92
2022/01/06 11:42:00;;;;;;;46.90;20.20;;;;;;;4.98;65.24;96313.81;1739282;81;25770;-86
2022/01/06 11:44:36;;;;;;;22.25;10.55;;;;;;;4.88;65.26;96322.23;1753058;81;27368;-92
2022/01/06 11:47:03;;;;;;;6.10;3.33;;;;;;;4.75;65.21;96335.56;1753131;81;25283;-94
2022/01/06 11:49:38;;;;;;;3.72;2.05;;;;;;;4.63;65.27;96378.59;1753320;81;25724;-92